Time;durP1;ratioP1;P1;durP2;ratioP2;P2;SDS_P1;SDS_P2;PMS_P1;PMS_P2;Temp;Humidity;BMP_temperature;BMP_pressure;BME280_temperature;BME280_humidity;BME280_pressure;Samples;Min_cycle;Max_cycle;Signal;HPM_P1;HPM_P2
2022/03/09 00:00:29;;;;;;;16.43;4.10;;;2.40;78.60;;;;;;5047025;28;20201;-55
2022/03/09 00:02:54;;;;;;;6.83;3.13;;;2.40;78.80;;;;;;5033034;28;20052;-52
2022/03/09 00:05:20;;;;;;;4.80;3.83;;;2.40;78.40;;;;;;5034043;28;20072;-52
2022/03/09 00:07:46;;;;;;;6.67;3.83;;;2.40;78.20;;;;;;5038040;28;20044;-54
2022/03/09 00:10:11;;;;;;;5.93;3.87;;;2.40;78.00;;;;;;5053304;28;20033;-54
2022/03/09 00:12:37;;;;;;;6.13;4.10;;;2.50;78.10;;;;;;5043935;28;20037;-52
2022/03/09 00:15:03;;;;;;;7.63;3.47;;;2.50;77.90;;;;;;5042790;28;20037;-52
2022/03/09 00:17:28;;;;;;;8.23;4.95;;;2.50;77.40;;;;;;5035935;28;20033;-53
2022/03/09 00:19:54;;;;;;;8.17;4.30;;;2.50;78.10;;;;;;5034195;28;20041;-54
2022/03/09 00:22:19;;;;;;;8.63;3.97;;;2.50;77.90;;;;;;5050576;28;20071;-53
2022/03/09 00:24:45;;;;;;;5.73;3.73;;;2.50;77.90;;;;;;5039818;28;20047;-54
2022/03/09 00:27:11;;;;;;;5.50;4.00;;;2.40;77.90;;;;;;5034732;28;20029;-54
2022/03/09 00:29:37;;;;;;;6.10;4.13;;;2.40;78.40;;;;;;5050254;28;20029;-55
2022/03/09 00:32:03;;;;;;;4.55;3.75;;;2.40;78.80;;;;;;5046303;28;20278;-55
2022/03/09 00:34:28;;;;;;;6.95;4.88;;;2.30;79.10;;;;;;5038905;28;20037;-53
2022/03/09 00:36:54;;;;;;;7.43;4.07;;;2.30;79.00;;;;;;5037410;28;20482;-53
2022/03/09 00:39:19;;;;;;;12.00;4.17;;;2.30;79.00;;;;;;5050991;28;20490;-50
2022/03/09 00:41:45;;;;;;;7.33;4.07;;;2.30;79.10;;;;;;5048490;28;20043;-54
2022/03/09 00:44:10;;;;;;;6.67;4.13;;;2.30;79.20;;;;;;5050838;28;20124;-53
2022/03/09 00:46:36;;;;;;;6.23;4.27;;;2.30;79.50;;;;;;5046976;28;20037;-53
2022/03/09 00:49:02;;;;;;;5.60;3.87;;;2.20;79.40;;;;;;5045332;28;20145;-54
2022/03/09 00:51:28;;;;;;;8.48;5.30;;;2.20;79.90;;;;;;5039364;28;20105;-54
2022/03/09 00:53:53;;;;;;;16.07;4.37;;;2.20;80.40;;;;;;5047043;28;20087;-50
2022/03/09 00:56:19;;;;;;;8.80;5.50;;;2.10;80.30;;;;;;5050087;28;20040;-53
2022/03/09 00:58:45;;;;;;;9.83;4.37;;;2.10;80.40;;;;;;5033699;28;20124;-54
2022/03/09 01:01:11;;;;;;;7.73;4.50;;;2.10;80.80;;;;;;5046614;28;20414;-54
2022/03/09 01:03:36;;;;;;;9.07;4.95;;;2.10;80.90;;;;;;5033311;28;20307;-53
2022/03/09 01:06:02;;;;;;;6.93;4.67;;;2.00;80.70;;;;;;5043874;28;20051;-53
2022/03/09 01:08:28;;;;;;;6.93;5.65;;;2.00;80.90;;;;;;5037478;28;20275;-53
2022/03/09 01:10:53;;;;;;;11.83;5.47;;;2.00;81.10;;;;;;5036828;28;20041;-53
2022/03/09 01:13:19;;;;;;;8.40;4.80;;;1.90;81.40;;;;;;5031976;28;20040;-54
2022/03/09 01:15:45;;;;;;;5.78;4.82;;;1.90;81.80;;;;;;5034484;28;20118;-54
2022/03/09 01:18:10;;;;;;;8.43;6.10;;;1.90;82.30;;;;;;5032360;28;20037;-54
2022/03/09 01:20:36;;;;;;;7.23;5.47;;;1.90;82.70;;;;;;5044276;28;20392;-54
2022/03/09 01:23:02;;;;;;;6.30;4.37;;;1.90;82.50;;;;;;5034655;28;20103;-55
2022/03/09 01:25:27;;;;;;;6.83;4.90;;;1.90;82.30;;;;;;5040412;28;20041;-53
2022/03/09 01:27:53;;;;;;;6.83;4.80;;;1.90;82.30;;;;;;5042526;28;20117;-52
2022/03/09 01:30:19;;;;;;;7.15;4.57;;;1.80;82.20;;;;;;5033583;28;20037;-51
2022/03/09 01:32:44;;;;;;;6.90;4.50;;;1.90;82.30;;;;;;5032693;28;20125;-52
2022/03/09 01:35:10;;;;;;;8.23;5.00;;;1.90;82.30;;;;;;5035639;28;20124;-54
2022/03/09 01:37:36;;;;;;;7.30;5.10;;;1.90;82.50;;;;;;5042757;28;20040;-54
2022/03/09 01:40:02;;;;;;;7.93;5.57;;;1.80;82.50;;;;;;5040364;28;20814;-53
2022/03/09 01:42:27;;;;;;;8.25;5.63;;;1.80;82.60;;;;;;5031492;28;20526;-52
2022/03/09 01:44:53;;;;;;;9.27;6.17;;;1.80;82.70;;;;;;5035891;28;20107;-53
2022/03/09 01:47:19;;;;;;;8.17;6.07;;;1.80;83.10;;;;;;5036149;28;20502;-55
2022/03/09 01:49:44;;;;;;;7.63;5.55;;;1.70;84.20;;;;;;5034977;28;20055;-55
2022/03/09 01:52:12;;;;;;;15.03;5.93;;;1.70;84.00;;;;;;5041479;28;20049;-54
2022/03/09 01:54:39;;;;;;;10.15;5.97;;;1.60;84.20;;;;;;5033653;28;20128;-53
2022/03/09 01:57:04;;;;;;;11.18;6.32;;;1.70;84.40;;;;;;5045323;28;20045;-55
2022/03/09 01:59:30;;;;;;;8.80;6.70;;;1.60;85.00;;;;;;5034025;28;20098;-53
2022/03/09 02:01:56;;;;;;;7.47;5.40;;;1.60;85.50;;;;;;5038143;28;20045;-53
2022/03/09 02:04:21;;;;;;;10.23;5.80;;;1.50;85.70;;;;;;5038400;28;20461;-52
2022/03/09 02:06:47;;;;;;;9.67;6.50;;;1.50;85.80;;;;;;5038676;28;20488;-55
2022/03/09 02:11:58;;;;;;;7.57;5.35;;;1.40;86.60;;;;;;5042249;28;20048;-54
2022/03/09 02:14:36;;;;;;;9.32;6.03;;;1.40;86.70;;;;;;5048140;28;20075;-52
2022/03/09 02:17:14;;;;;;;9.07;6.05;;;1.40;86.80;;;;;;5032810;28;20049;-55
2022/03/09 02:19:41;;;;;;;7.78;5.88;;;1.30;86.90;;;;;;5037597;28;20041;-54
2022/03/09 02:22:07;;;;;;;9.35;6.40;;;1.30;87.10;;;;;;5035237;28;20069;-54
2022/03/09 02:24:33;;;;;;;7.73;5.83;;;1.30;87.60;;;;;;5042687;28;20079;-55
2022/03/09 02:26:59;;;;;;;8.75;5.68;;;1.30;87.80;;;;;;5039405;28;20037;-53
2022/03/09 02:29:25;;;;;;;11.33;6.97;;;1.30;88.00;;;;;;5035263;28;20037;-54
2022/03/09 02:31:50;;;;;;;9.20;7.13;;;1.30;88.40;;;;;;5046307;28;20461;-54
2022/03/09 02:34:16;;;;;;;8.87;6.37;;;1.30;88.70;;;;;;5048261;28;20072;-55
2022/03/09 02:36:42;;;;;;;10.40;6.05;;;1.20;88.90;;;;;;5042214;28;20048;-54
2022/03/09 02:39:07;;;;;;;9.50;5.80;;;1.20;89.20;;;;;;5049802;28;20037;-55
2022/03/09 02:41:33;;;;;;;12.07;6.43;;;1.20;89.50;;;;;;5031599;28;20044;-55
2022/03/09 02:44:01;;;;;;;10.40;6.97;;;1.20;89.80;;;;;;5037433;28;20036;-53
2022/03/09 02:46:27;;;;;;;9.15;7.00;;;1.10;90.00;;;;;;5040747;28;20034;-55
2022/03/09 02:48:53;;;;;;;10.32;6.28;;;1.10;90.10;;;;;;5041177;28;20048;-53
2022/03/09 02:51:18;;;;;;;9.15;6.90;;;1.10;90.10;;;;;;5033780;28;20099;-53
2022/03/09 02:53:44;;;;;;;12.73;6.47;;;1.10;90.30;;;;;;5041004;28;20044;-54
2022/03/09 02:56:09;;;;;;;9.97;6.80;;;1.00;90.50;;;;;;5046270;28;20080;-55
2022/03/09 02:58:35;;;;;;;8.33;6.50;;;1.00;90.50;;;;;;5038156;28;20036;-54
2022/03/09 03:01:01;;;;;;;7.77;6.53;;;1.00;90.80;;;;;;5037671;28;20056;-54
2022/03/09 03:03:26;;;;;;;16.10;7.20;;;1.00;90.90;;;;;;5048088;28;20506;-53
2022/03/09 03:05:52;;;;;;;12.20;6.83;;;0.90;91.10;;;;;;5045497;28;20037;-55
2022/03/09 03:08:17;;;;;;;11.90;7.40;;;0.90;91.20;;;;;;5029977;28;20045;-54
2022/03/09 03:10:43;;;;;;;10.07;7.30;;;0.90;91.60;;;;;;5043269;28;20068;-52
2022/03/09 03:13:08;;;;;;;9.17;7.43;;;0.80;91.60;;;;;;5045710;28;20076;-51
2022/03/09 03:15:34;;;;;;;9.80;7.57;;;0.80;91.90;;;;;;5038973;28;20482;-49
2022/03/09 03:18:01;;;;;;;11.23;8.00;;;0.80;92.00;;;;;;5047467;28;20433;-50
2022/03/09 03:20:27;;;;;;;11.40;7.18;;;0.80;92.10;;;;;;5041335;28;20041;-50
2022/03/09 03:22:53;;;;;;;14.40;7.18;;;0.80;92.20;;;;;;5042052;28;20489;-48
2022/03/09 03:25:18;;;;;;;8.43;6.57;;;0.80;92.20;;;;;;5041061;28;20368;-52
2022/03/09 03:27:44;;;;;;;10.77;6.90;;;0.80;92.30;;;;;;5044959;28;20037;-50
2022/03/09 03:30:10;;;;;;;10.27;7.57;;;0.80;92.30;;;;;;5042346;28;20037;-49
2022/03/09 03:32:36;;;;;;;11.98;6.97;;;0.80;92.30;;;;;;5043078;28;20112;-49
2022/03/09 03:35:02;;;;;;;16.30;8.80;;;0.90;92.20;;;;;;5031821;28;20046;-53
2022/03/09 03:37:27;;;;;;;13.23;6.65;;;0.90;92.30;;;;;;5032034;28;20038;-55
2022/03/09 03:39:53;;;;;;;9.87;7.17;;;0.90;92.30;;;;;;5034621;28;20421;-50
2022/03/09 03:42:18;;;;;;;10.67;7.27;;;0.90;92.30;;;;;;5044861;28;20065;-50
2022/03/09 03:44:44;;;;;;;14.70;7.43;;;0.90;92.20;;;;;;5029839;28;20043;-51
2022/03/09 03:47:10;;;;;;;11.53;6.47;;;0.90;92.10;;;;;;5035436;28;20305;-53
2022/03/09 03:49:35;;;;;;;8.47;6.80;;;0.90;92.30;;;;;;5043693;28;20132;-52
2022/03/09 03:52:01;;;;;;;12.23;7.27;;;0.90;92.40;;;;;;5038379;28;20041;-54
2022/03/09 03:54:26;;;;;;;11.23;7.47;;;0.90;92.50;;;;;;5033846;28;20043;-51
2022/03/09 03:56:52;;;;;;;10.97;7.40;;;0.90;92.60;;;;;;5034816;28;20123;-49
2022/03/09 03:59:17;;;;;;;10.43;7.00;;;0.90;92.70;;;;;;5030589;28;20392;-48
2022/03/09 04:01:43;;;;;;;14.67;7.53;;;0.80;92.70;;;;;;5047070;28;20081;-53
2022/03/09 04:04:08;;;;;;;13.90;7.23;;;0.90;92.80;;;;;;5033443;28;20041;-55
2022/03/09 04:06:34;;;;;;;12.07;7.27;;;0.90;92.70;;;;;;5035835;28;20083;-50
2022/03/09 04:08:59;;;;;;;11.73;7.47;;;0.90;92.80;;;;;;5043999;28;20044;-49
2022/03/09 04:11:26;;;;;;;12.63;7.70;;;0.80;92.80;;;;;;5033589;28;20386;-53
2022/03/09 04:13:51;;;;;;;12.35;7.38;;;0.90;92.80;;;;;;5043287;28;20049;-54
2022/03/09 04:16:17;;;;;;;7.57;6.67;;;0.80;92.80;;;;;;5032986;28;20465;-49
2022/03/09 04:18:42;;;;;;;8.70;6.33;;;0.80;92.90;;;;;;5039442;28;20045;-49
2022/03/09 04:21:08;;;;;;;9.57;6.60;;;0.80;93.00;;;;;;5048241;28;20428;-49
2022/03/09 04:23:33;;;;;;;11.40;6.50;;;0.80;93.10;;;;;;5042133;28;20410;-53
2022/03/09 04:26:00;;;;;;;10.37;7.30;;;0.80;93.10;;;;;;5043185;28;20474;-50
2022/03/09 04:28:26;;;;;;;;;;;0.70;93.10;;;;;;5042019;28;20044;-49
2022/03/09 04:30:51;;;;;;;9.55;6.72;;;0.70;93.50;;;;;;5047336;28;20170;-53
2022/03/09 04:33:17;;;;;;;11.13;7.47;;;0.60;93.70;;;;;;5038587;28;20481;-54
2022/03/09 04:35:42;;;;;;;12.17;6.73;;;0.50;94.00;;;;;;5043336;28;20498;-51
2022/03/09 04:38:08;;;;;;;10.27;6.40;;;0.50;94.30;;;;;;5047262;28;20090;-52
2022/03/09 04:40:33;;;;;;;9.30;7.30;;;0.50;94.40;;;;;;5031863;28;20037;-48
2022/03/09 04:42:59;;;;;;;10.80;7.77;;;0.50;94.30;;;;;;5037122;28;20568;-50
2022/03/09 04:45:24;;;;;;;13.90;7.50;;;0.40;94.40;;;;;;5045193;28;20025;-54
2022/03/09 04:47:50;;;;;;;11.00;7.00;;;0.40;94.60;;;;;;5040221;28;20513;-50
2022/03/09 04:50:15;;;;;;;12.00;8.00;;;0.40;94.70;;;;;;5041889;28;20401;-49
2022/03/09 04:52:41;;;;;;;14.20;7.53;;;0.40;95.00;;;;;;5051387;28;20041;-52
2022/03/09 04:55:07;;;;;;;14.07;8.03;;;0.30;94.80;;;;;;5041246;28;20049;-54
2022/03/09 04:57:36;;;;;;;12.35;7.10;;;0.30;95.00;;;;;;5043078;28;20045;-52
2022/03/09 05:00:03;;;;;;;10.20;7.35;;;0.30;95.10;;;;;;5035308;28;20076;-51
2022/03/09 05:02:29;;;;;;;14.05;7.10;;;0.20;95.10;;;;;;5032940;28;20048;-54
2022/03/09 05:04:54;;;;;;;9.27;7.23;;;0.30;95.20;;;;;;5035260;28;20414;-51
2022/03/09 05:07:20;;;;;;;10.00;6.13;;;0.30;95.30;;;;;;5044066;28;20106;-49
2022/03/09 05:09:45;;;;;;;14.23;7.03;;;0.30;95.20;;;;;;5039280;28;20041;-49
2022/03/09 05:12:11;;;;;;;13.00;7.57;;;0.20;95.40;;;;;;5049627;28;20045;-50
2022/03/09 05:14:36;;;;;;;10.90;6.57;;;0.30;95.30;;;;;;5039484;28;20037;-49
2022/03/09 05:17:02;;;;;;;16.43;7.27;;;0.20;95.30;;;;;;5045912;28;20045;-54
2022/03/09 05:19:28;;;;;;;13.73;7.13;;;0.30;95.40;;;;;;5043927;28;20041;-50
2022/03/09 05:21:53;;;;;;;10.10;6.23;;;0.30;95.30;;;;;;5033409;28;20040;-50
2022/03/09 05:24:19;;;;;;;12.77;7.30;;;0.30;95.40;;;;;;5031470;28;20038;-49
2022/03/09 05:26:46;;;;;;;16.40;7.47;;;0.30;95.30;;;;;;5043035;28;20617;-51
2022/03/09 05:29:13;;;;;;;10.18;6.40;;;0.30;95.40;;;;;;5045616;28;20044;-54
2022/03/09 05:31:38;;;;;;;12.98;6.97;;;0.30;95.30;;;;;;5047158;28;20048;-53
2022/03/09 05:34:04;;;;;;;10.83;6.93;;;0.30;95.30;;;;;;5032568;28;20049;-52
2022/03/09 05:36:30;;;;;;;13.35;8.63;;;0.20;95.20;;;;;;5035866;28;20037;-54
2022/03/09 05:38:55;;;;;;;9.83;7.00;;;0.20;95.30;;;;;;5046439;28;20406;-51
2022/03/09 05:41:21;;;;;;;8.93;7.20;;;0.20;95.50;;;;;;5031653;28;20045;-49
2022/03/09 05:43:49;;;;;;;9.60;7.27;;;0.10;95.50;;;;;;5033047;28;20337;-49
2022/03/09 05:46:14;;;;;;;12.10;7.55;;;0.10;95.60;;;;;;5043712;28;20040;-50
2022/03/09 05:48:40;;;;;;;12.90;7.40;;;0.10;95.80;;;;;;5035730;28;20443;-52
2022/03/09 05:51:05;;;;;;;10.53;6.80;;;0.10;96.00;;;;;;5043700;28;20033;-49
2022/03/09 05:53:31;;;;;;;12.47;8.20;;;0.10;96.20;;;;;;5036332;28;20087;-49
2022/03/09 05:55:56;;;;;;;12.47;6.97;;;0.00;96.40;;;;;;5042209;28;20037;-51
2022/03/09 05:58:22;;;;;;;10.67;7.70;;;0.00;96.60;;;;;;5045374;28;20048;-49
2022/03/09 06:00:47;;;;;;;11.27;7.93;;;-0.10;96.70;;;;;;5047708;28;20037;-50
2022/03/09 06:03:13;;;;;;;11.57;8.07;;;-0.10;97.10;;;;;;5048551;28;20158;-53
2022/03/09 06:05:39;;;;;;;17.33;7.90;;;-0.20;97.20;;;;;;5037053;28;20029;-49
2022/03/09 06:08:04;;;;;;;13.47;8.13;;;-0.20;97.50;;;;;;5036378;28;20037;-49
2022/03/09 06:10:30;;;;;;;11.37;8.10;;;-0.20;97.80;;;;;;5040018;28;20075;-49
2022/03/09 06:12:55;;;;;;;12.03;7.60;;;-0.10;98.20;;;;;;5050083;28;20379;-49
2022/03/09 06:15:21;;;;;;;12.87;7.30;;;-0.10;98.20;;;;;;5040870;28;20044;-53
2022/03/09 06:17:48;;;;;;;13.13;8.53;;;-0.10;98.30;;;;;;5048706;28;20486;-53
2022/03/09 06:20:22;;;;;;;12.90;7.43;;;0.00;98.30;;;;;;5049314;28;20064;-49
2022/03/09 06:22:49;;;;;;;16.75;8.93;;;0.20;98.20;;;;;;5032281;28;20077;-49
2022/03/09 06:25:14;;;;;;;;;;;0.30;98.10;;;;;;5039357;28;20040;-54
2022/03/09 06:27:48;;;;;;;10.57;7.85;;;0.50;98.10;;;;;;5031030;28;20370;-52
2022/03/09 06:30:14;;;;;;;11.52;8.65;;;0.80;97.40;;;;;;5046496;28;20048;-52
2022/03/09 06:32:41;;;;;;;9.85;8.05;;;1.00;96.80;;;;;;5043552;28;20460;-50
2022/03/09 06:35:07;;;;;;;32.47;29.63;;;1.30;96.20;;;;;;5037221;28;20414;-54
2022/03/09 06:37:33;;;;;;;23.97;22.07;;;1.60;95.60;;;;;;5033635;28;20049;-49
2022/03/09 06:39:59;;;;;;;16.95;15.27;;;1.90;95.10;;;;;;5046561;28;20041;-51
2022/03/09 06:42:26;;;;;;;20.52;18.63;;;2.20;94.70;;;;;;5040129;28;20045;-54
2022/03/09 06:44:52;;;;;;;15.38;14.05;;;2.50;94.50;;;;;;5038635;28;20037;-52
2022/03/09 06:47:18;;;;;;;11.10;9.75;;;2.80;94.10;;;;;;5049351;28;20586;-51
2022/03/09 06:49:44;;;;;;;12.60;9.25;;;3.10;93.50;;;;;;5045124;28;20150;-53
2022/03/09 06:52:09;;;;;;;10.23;7.97;;;3.40;92.90;;;;;;5033485;28;20366;-55
2022/03/09 06:54:35;;;;;;;10.30;7.85;;;3.80;92.50;;;;;;5044669;28;20116;-52
2022/03/09 06:57:02;;;;;;;8.30;7.03;;;4.20;91.70;;;;;;5037210;28;20052;-51
2022/03/09 06:59:27;;;;;;;8.85;6.65;;;4.60;91.10;;;;;;5030023;28;20047;-55
2022/03/09 07:01:53;;;;;;;10.73;7.93;;;5.00;90.30;;;;;;5046269;28;20045;-52
2022/03/09 07:04:18;;;;;;;9.57;6.27;;;5.40;89.40;;;;;;5043113;28;20061;-54
2022/03/09 07:06:44;;;;;;;9.80;6.30;;;5.80;87.00;;;;;;5030018;28;20090;-50
2022/03/09 07:09:10;;;;;;;10.60;6.50;;;6.20;85.30;;;;;;5046000;28;20037;-49
2022/03/09 07:11:36;;;;;;;11.85;7.38;;;6.50;83.40;;;;;;5043996;28;20457;-54
2022/03/09 07:14:02;;;;;;;8.77;6.70;;;6.70;81.10;;;;;;5029939;28;20046;-55
2022/03/09 07:16:27;;;;;;;11.47;6.60;;;6.60;79.20;;;;;;5042870;28;20131;-50
2022/03/09 07:18:53;;;;;;;8.53;6.57;;;6.20;79.30;;;;;;5044227;28;20045;-54
2022/03/09 07:21:18;;;;;;;8.33;6.83;;;5.80;80.00;;;;;;5029902;28;20495;-52
2022/03/09 07:23:44;;;;;;;10.00;7.33;;;5.40;80.70;;;;;;5044309;28;20076;-51
2022/03/09 07:26:09;;;;;;;13.30;6.93;;;5.20;82.50;;;;;;5048325;28;20029;-54
2022/03/09 07:28:35;;;;;;;11.03;7.27;;;5.00;82.70;;;;;;5030490;28;20041;-54
2022/03/09 07:31:01;;;;;;;12.63;6.53;;;4.80;83.00;;;;;;5034214;28;20287;-53
2022/03/09 07:33:26;;;;;;;7.67;5.43;;;4.70;84.00;;;;;;5042560;28;20129;-52
2022/03/09 07:35:52;;;;;;;13.37;5.87;;;4.70;85.70;;;;;;5039909;28;20510;-50
2022/03/09 07:38:18;;;;;;;9.57;6.67;;;4.60;84.20;;;;;;5033283;28;20103;-55
2022/03/09 07:40:44;;;;;;;13.82;6.45;;;4.60;85.40;;;;;;5037876;28;20407;-55
2022/03/09 07:43:10;;;;;;;18.55;6.70;;;4.50;85.40;;;;;;5035373;28;20049;-55
2022/03/09 07:45:36;;;;;;;74.82;11.55;;;4.40;85.80;;;;;;5047344;28;20340;-54
2022/03/09 07:48:02;;;;;;;12.40;6.68;;;4.40;86.70;;;;;;5036215;28;20179;-53
2022/03/09 07:50:28;;;;;;;13.13;6.90;;;4.50;86.30;;;;;;5034560;28;20042;-56
2022/03/09 07:52:54;;;;;;;12.20;7.10;;;4.50;87.10;;;;;;5042493;28;20033;-54
2022/03/09 07:55:19;;;;;;;12.00;6.70;;;4.60;86.70;;;;;;5039058;28;20034;-55
2022/03/09 07:57:45;;;;;;;11.67;6.33;;;4.60;86.50;;;;;;5037655;28;20083;-55
2022/03/09 08:00:12;;;;;;;15.75;7.25;;;4.60;86.90;;;;;;5033207;28;20459;-53
2022/03/09 08:02:37;;;;;;;13.27;5.90;;;4.60;86.90;;;;;;5039715;28;20042;-55
2022/03/09 08:05:03;;;;;;;9.88;6.95;;;4.60;86.40;;;;;;5049577;28;20111;-54
2022/03/09 08:07:30;;;;;;;9.45;6.47;;;4.60;86.10;;;;;;5040480;28;20029;-54
2022/03/09 08:09:56;;;;;;;11.27;6.45;;;4.60;85.50;;;;;;5042366;28;20032;-54
2022/03/09 08:12:22;;;;;;;8.23;6.77;;;4.50;84.20;;;;;;5039082;28;20421;-53
2022/03/09 08:14:47;;;;;;;10.20;7.07;;;4.60;84.20;;;;;;5037688;28;20575;-53
2022/03/09 08:17:13;;;;;;;8.03;7.00;;;4.50;84.30;;;;;;5033705;28;20869;-48
2022/03/09 08:19:38;;;;;;;12.67;6.70;;;4.60;86.10;;;;;;5032375;28;20509;-54
2022/03/09 08:22:04;;;;;;;11.30;6.27;;;4.60;84.80;;;;;;5034271;28;20158;-53
2022/03/09 08:24:29;;;;;;;13.23;6.57;;;4.60;84.20;;;;;;5032016;28;20032;-53
2022/03/09 08:26:55;;;;;;;12.70;6.50;;;4.70;84.30;;;;;;5030553;28;20037;-53
2022/03/09 08:29:21;;;;;;;9.40;6.67;;;4.80;84.70;;;;;;5028426;28;20044;-54
2022/03/09 08:31:46;;;;;;;10.47;6.23;;;4.80;83.80;;;;;;5032030;28;20065;-55
2022/03/09 08:34:12;;;;;;;11.67;7.30;;;4.90;83.70;;;;;;5038897;28;20414;-53
2022/03/09 08:36:37;;;;;;;10.73;7.30;;;5.00;83.60;;;;;;5034105;28;20605;-52
2022/03/09 08:39:03;;;;;;;9.30;6.50;;;5.10;83.70;;;;;;5031022;28;20045;-53
2022/03/09 08:41:31;;;;;;;13.27;7.22;;;5.20;81.60;;;;;;5037411;28;20141;-53
2022/03/09 08:43:57;;;;;;;7.93;6.15;;;5.30;80.90;;;;;;5029538;28;20041;-53
2022/03/09 08:46:23;;;;;;;12.53;6.70;;;5.40;78.70;;;;;;5039071;28;20041;-51
2022/03/09 08:48:48;;;;;;;11.20;7.00;;;5.40;78.90;;;;;;5041627;28;20033;-50
2022/03/09 08:51:14;;;;;;;9.33;6.60;;;5.50;78.70;;;;;;5041044;28;20044;-52
2022/03/09 08:53:40;;;;;;;9.25;6.68;;;5.60;77.30;;;;;;5030636;28;20047;-52
2022/03/09 08:56:07;;;;;;;9.37;7.43;;;5.70;77.80;;;;;;5034516;28;20127;-52
2022/03/09 08:58:37;;;;;;;10.57;7.15;;;5.80;77.90;;;;;;5046060;28;20037;-54
2022/03/09 09:01:03;;;;;;;12.88;7.18;;;5.90;77.70;;;;;;5041138;28;20913;-49
2022/03/09 09:03:29;;;;;;;13.65;7.25;;;6.10;76.60;;;;;;5039995;28;20033;-51
2022/03/09 09:05:55;;;;;;;10.73;7.20;;;6.20;78.10;;;;;;5035479;28;20033;-52
2022/03/09 09:08:21;;;;;;;17.27;7.60;;;6.30;73.30;;;;;;5038447;28;20079;-52
2022/03/09 09:10:47;;;;;;;10.30;6.80;;;6.40;71.10;;;;;;5036405;28;20038;-49
2022/03/09 09:13:13;;;;;;;9.43;6.70;;;6.50;72.80;;;;;;5033760;28;20283;-53
2022/03/09 09:15:39;;;;;;;14.03;7.17;;;6.60;73.60;;;;;;5040945;28;20502;-49
2022/03/09 09:18:06;;;;;;;7.37;5.83;;;6.70;67.90;;;;;;5029693;28;20068;-52
2022/03/09 09:20:33;;;;;;;11.25;7.25;;;6.80;67.70;;;;;;5038318;28;20044;-52
2022/03/09 09:22:59;;;;;;;12.45;6.88;;;6.90;69.70;;;;;;5043042;28;20509;-52
2022/03/09 09:25:26;;;;;;;12.98;7.38;;;7.00;68.40;;;;;;5042310;28;20291;-51
2022/03/09 09:27:53;;;;;;;13.57;7.35;;;7.10;66.70;;;;;;5035228;28;20405;-52
2022/03/09 09:30:20;;;;;;;9.40;6.60;;;7.30;68.00;;;;;;5030601;28;20608;-53
2022/03/09 09:32:47;;;;;;;10.02;6.20;;;7.40;67.00;;;;;;5034550;28;20444;-52
2022/03/09 09:35:13;;;;;;;9.63;6.10;;;7.50;65.60;;;;;;5042250;28;20113;-54
2022/03/09 09:37:39;;;;;;;6.70;5.75;;;7.60;65.00;;;;;;5040491;28;20248;-53
2022/03/09 09:40:07;;;;;;;8.02;6.03;;;7.70;64.90;;;;;;5032985;28;20109;-53
2022/03/09 09:42:33;;;;;;;9.27;5.85;;;7.70;62.60;;;;;;5031083;28;20175;-51
2022/03/09 09:45:00;;;;;;;;;;;7.80;63.40;;;;;;5033357;28;20512;-52
2022/03/09 09:47:30;;;;;;;11.67;6.80;;;7.80;61.90;;;;;;5036216;28;19943;-54
2022/03/09 09:49:56;;;;;;;10.38;6.20;;;7.80;62.80;;;;;;5044804;28;20643;-52
2022/03/09 09:52:26;;;;;;;12.10;6.33;;;7.90;63.40;;;;;;5035819;28;20037;-49
2022/03/09 09:54:56;;;;;;;12.05;6.80;;;8.10;61.50;;;;;;5030780;28;20466;-54
2022/03/09 09:57:23;;;;;;;11.02;6.57;;;8.20;62.40;;;;;;5027466;28;20044;-54
2022/03/09 09:59:50;;;;;;;7.07;5.57;;;8.30;60.90;;;;;;5034751;28;20127;-54
2022/03/09 10:02:16;;;;;;;8.52;6.38;;;8.40;60.60;;;;;;5037036;28;20082;-54
2022/03/09 10:04:42;;;;;;;9.65;6.43;;;8.40;60.70;;;;;;5027791;28;20040;-52
2022/03/09 10:07:09;;;;;;;9.30;6.82;;;8.50;58.90;;;;;;5040274;28;20033;-54
2022/03/09 10:09:36;;;;;;;8.02;5.63;;;8.50;57.70;;;;;;5035301;28;20049;-54
2022/03/09 10:12:04;;;;;;;10.07;6.53;;;8.50;58.40;;;;;;5041070;28;20032;-53
2022/03/09 10:14:51;;;;;;;7.47;5.97;;;8.50;58.90;;;;;;5028884;28;20034;-53
2022/03/09 10:17:16;;;;;;;9.77;6.45;;;8.60;58.40;;;;;;5037523;28;20120;-52
2022/03/09 10:19:50;;;;;;;9.07;6.50;;;8.70;58.90;;;;;;5042928;28;20044;-51
2022/03/09 10:22:36;;;;;;;7.78;6.03;;;8.80;59.70;;;;;;5028029;28;20044;-52
2022/03/09 10:25:10;;;;;;;9.93;6.07;;;8.90;58.90;;;;;;5032868;28;20036;-53
2022/03/09 10:27:42;;;;;;;7.63;5.85;;;9.00;58.40;;;;;;5037084;28;20304;-54
2022/03/09 10:30:13;;;;;;;10.10;6.45;;;9.00;58.10;;;;;;5031820;28;20072;-53
2022/03/09 10:33:08;;;;;;;12.07;6.68;;;9.00;57.80;;;;;;5038036;28;20080;-54
2022/03/09 10:35:33;;;;;;;7.57;6.40;;;9.10;58.10;;;;;;5038101;28;20048;-50
2022/03/09 10:38:02;;;;;;;11.67;7.53;;;9.20;58.60;;;;;;5032652;28;20379;-52
2022/03/09 10:40:29;;;;;;;8.25;6.40;;;9.20;58.70;;;;;;5036914;28;20049;-54
2022/03/09 10:43:16;;;;;;;7.65;5.97;;;9.30;57.60;;;;;;5033435;28;20525;-54
2022/03/09 10:46:27;;;;;;;13.70;7.07;;;9.40;58.30;;;;;;5027783;28;20144;-54
2022/03/09 10:48:57;;;;;;;8.95;7.40;;;9.60;59.50;;;;;;5022662;28;20041;-53
2022/03/09 10:51:27;;;;;;;10.60;6.07;;;9.70;58.80;;;;;;5045650;28;20037;-53
2022/03/09 10:53:53;;;;;;;11.27;7.18;;;9.70;57.70;;;;;;5033106;28;20044;-52
2022/03/09 10:56:19;;;;;;;10.75;7.53;;;9.80;56.70;;;;;;5036179;28;20105;-53
2022/03/09 10:58:45;;;;;;;;;;;9.80;56.50;;;;;;5034415;28;20072;-52
2022/03/09 11:01:16;;;;;;;9.90;6.60;;;9.90;57.70;;;;;;5034559;28;19917;-51
2022/03/09 11:03:43;;;;;;;13.15;7.15;;;10.00;59.30;;;;;;5036541;28;20049;-53
2022/03/09 11:06:10;;;;;;;11.95;7.95;;;10.10;55.10;;;;;;5040434;28;20163;-54
2022/03/09 11:08:36;;;;;;;;;;;10.10;56.00;;;;;;5035626;28;20536;-53
2022/03/09 11:11:02;;;;;;;7.70;6.78;;;10.10;56.70;;;;;;5041467;28;19916;-53
2022/03/09 11:13:30;;;;;;;7.60;6.55;;;10.10;54.50;;;;;;5028102;28;20045;-54
2022/03/09 11:15:56;;;;;;;9.02;6.90;;;10.20;55.80;;;;;;5036093;28;20140;-53
2022/03/09 11:18:24;;;;;;;9.52;7.00;;;10.20;58.20;;;;;;5036848;28;20120;-54
2022/03/09 11:20:56;;;;;;;11.43;6.70;;;10.30;54.40;;;;;;5035198;28;20041;-53
2022/03/09 11:23:23;;;;;;;7.90;6.53;;;10.30;52.50;;;;;;5027218;28;20048;-52
2022/03/09 11:26:00;;;;;;;10.40;6.72;;;10.30;53.60;;;;;;5034446;28;20033;-53
2022/03/09 11:28:30;;;;;;;8.80;6.35;;;10.40;53.60;;;;;;5039382;28;20441;-50
2022/03/09 11:31:02;;;;;;;8.27;7.00;;;10.40;54.10;;;;;;5030812;28;20041;-55
2022/03/09 11:33:45;;;;;;;9.95;7.45;;;10.50;53.10;;;;;;5042237;28;20095;-51
2022/03/09 11:36:29;;;;;;;9.88;6.20;;;10.60;54.60;;;;;;5028564;28;20041;-53
2022/03/09 11:39:04;;;;;;;9.15;6.53;;;10.70;54.80;;;;;;5047339;28;20048;-53
2022/03/09 11:41:35;;;;;;;10.40;7.65;;;10.80;52.60;;;;;;5035379;28;20487;-52
2022/03/09 11:44:19;;;;;;;8.20;6.85;;;10.90;53.70;;;;;;5036328;28;20048;-55
2022/03/09 11:46:58;;;;;;;9.25;7.32;;;11.00;54.80;;;;;;5039103;28;20110;-54
2022/03/09 11:49:36;;;;;;;10.70;7.88;;;11.10;53.70;;;;;;5045159;28;20098;-54
2022/03/09 11:52:10;;;;;;;10.13;7.68;;;11.10;53.10;;;;;;5045702;28;20505;-52
2022/03/09 11:54:49;;;;;;;7.88;6.57;;;11.00;51.10;;;;;;5029449;28;20051;-53
2022/03/09 11:57:17;;;;;;;8.75;7.63;;;11.20;54.30;;;;;;5044071;28;20045;-54
2022/03/09 12:00:07;;;;;;;9.02;6.88;;;11.20;52.60;;;;;;5045111;28;20339;-54
2022/03/09 12:02:40;;;;;;;9.77;8.18;;;11.30;52.50;;;;;;5039139;28;20041;-55
2022/03/09 12:05:06;;;;;;;12.43;8.23;;;11.40;53.20;;;;;;5038729;28;20037;-55
2022/03/09 12:07:35;;;;;;;9.40;7.47;;;11.50;54.10;;;;;;5044074;28;20502;-52
2022/03/09 12:10:07;;;;;;;11.40;7.35;;;11.50;51.90;;;;;;5048916;28;20041;-51
2022/03/09 12:12:34;;;;;;;11.63;7.00;;;11.60;52.30;;;;;;5042290;28;20132;-55
2022/03/09 12:15:05;;;;;;;10.40;7.68;;;11.60;52.10;;;;;;5051398;28;20391;-54
2022/03/09 12:17:39;;;;;;;9.27;7.05;;;11.60;54.50;;;;;;5046151;28;20063;-52
2022/03/09 12:20:25;;;;;;;11.45;7.55;;;11.60;51.00;;;;;;5052804;28;20434;-52
2022/03/09 12:22:56;;;;;;;13.25;8.50;;;11.70;50.30;;;;;;5047175;28;20037;-53
2022/03/09 12:25:49;;;;;;;8.65;7.45;;;11.80;50.90;;;;;;5047926;28;20034;-54
2022/03/09 12:28:23;;;;;;;7.53;6.70;;;11.90;53.20;;;;;;5032596;28;20038;-53
2022/03/09 12:30:57;;;;;;;9.02;8.13;;;11.90;50.80;;;;;;5040569;28;20555;-53
2022/03/09 12:33:28;;;;;;;11.55;8.13;;;11.80;47.70;;;;;;5040573;28;20552;-54
2022/03/09 12:36:08;;;;;;;10.55;8.10;;;11.80;49.90;;;;;;5049893;28;20040;-54
2022/03/09 12:38:41;;;;;;;9.55;7.88;;;11.80;52.60;;;;;;5031423;28;20048;-53
2022/03/09 12:41:26;;;;;;;8.82;7.25;;;12.00;52.10;;;;;;5033970;28;20446;-54
2022/03/09 12:43:54;;;;;;;9.63;7.18;;;12.00;52.00;;;;;;5032258;28;20045;-56
2022/03/09 12:46:21;;;;;;;11.23;8.50;;;12.10;49.90;;;;;;5038990;28;20386;-52
2022/03/09 12:48:46;;;;;;;;;;;12.20;50.00;;;;;;5029030;28;20044;-54
2022/03/09 12:51:12;;;;;;;10.05;7.53;;;12.30;49.80;;;;;;5043341;28;20003;-54
2022/03/09 12:53:38;;;;;;;8.27;6.63;;;12.30;48.40;;;;;;5051923;28;20079;-54